Time;durP1;ratioP1;P1;durP2;ratioP2;P2;SDS_P1;SDS_P2;PMS_P1;PMS_P2;Temp;Humidity;BMP_temperature;BMP_pressure;BME280_temperature;BME280_humidity;BME280_pressure;Samples;Min_cycle;Max_cycle;Signal;HPM_P1;HPM_P2
2023/09/29 12:22:10;;;;;;;;;;;;;;;26.01;29.45;98079.19;10493608;27;20364;-52
2023/09/29 12:27:09;;;;;;;9.30;3.53;;;;;;;26.27;30.25;98064.38;10492615;28;19912;-52
2023/09/29 12:32:08;;;;;;;12.45;3.92;;;;;;;26.24;28.87;98074.34;10492418;28;20032;-54
2023/09/29 12:37:08;;;;;;;11.45;3.78;;;;;;;25.95;30.39;98060.97;10493528;28;20482;-54
2023/09/29 12:42:08;;;;;;;16.52;4.18;;;;;;;25.78;29.63;98045.13;10492397;28;20473;-54
2023/09/29 12:47:09;;;;;;;11.52;4.35;;;;;;;25.47;30.63;98053.03;10492653;28;20066;-54
2023/09/29 12:52:08;;;;;;;10.25;5.10;;;;;;;25.54;30.03;98048.25;10491892;28;20071;-53
2023/09/29 12:57:07;;;;;;;11.43;5.25;;;;;;;25.43;30.10;98055.94;10492270;28;20063;-53
2023/09/29 13:02:08;;;;;;;9.10;4.88;;;;;;;24.96;30.49;98040.84;10491356;28;20075;-54
2023/09/29 13:07:09;;;;;;;16.95;5.90;;;;;;;25.02;30.43;98048.50;10472814;28;20071;-54
2023/09/29 13:12:08;;;;;;;13.10;5.85;;;;;;;25.11;30.83;98043.53;10489003;28;20078;-54
2023/09/29 13:17:07;;;;;;;11.25;5.88;;;;;;;25.11;30.65;98032.06;10490743;28;20064;-54
2023/09/29 13:22:07;;;;;;;16.23;6.25;;;;;;;25.21;31.00;98041.22;10468870;28;20059;-53
2023/09/29 13:27:06;;;;;;;11.93;5.75;;;;;;;25.10;31.06;98032.97;10462683;28;20521;-54
2023/09/29 13:32:05;;;;;;;12.98;5.93;;;;;;;25.02;30.32;98036.06;10462695;28;20571;-53
2023/09/29 13:37:04;;;;;;;12.90;6.10;;;;;;;25.13;31.17;98027.53;10462257;28;20079;-54
2023/09/29 13:42:04;;;;;;;14.48;6.65;;;;;;;25.27;30.91;98030.25;10462430;28;20062;-53
2023/09/29 13:47:03;;;;;;;13.35;6.07;;;;;;;25.27;31.22;98027.59;10460010;28;20678;-53
2023/09/29 13:52:02;;;;;;;9.60;5.47;;;;;;;24.99;31.21;98019.44;10461622;28;20495;-54
2023/09/29 13:57:03;;;;;;;11.85;6.15;;;;;;;24.79;32.30;98013.41;10461417;28;20075;-54
2023/09/29 14:02:07;;;;;;;9.52;6.35;;;;;;;24.61;32.22;98011.75;10461565;28;20521;-54
2023/09/29 14:07:06;;;;;;;10.90;5.43;;;;;;;24.33;32.45;97968.13;10461158;28;20079;-53
2023/09/29 14:12:07;;;;;;;15.80;5.90;;;;;;;24.52;31.88;97980.41;10461190;28;20067;-53
2023/09/29 14:17:06;;;;;;;11.07;6.90;;;;;;;24.58;31.87;98017.22;10461160;28;20086;-53
2023/09/29 14:22:05;;;;;;;14.30;5.60;;;;;;;24.33;32.09;98021.16;10459720;28;20054;-54
2023/09/29 14:27:06;;;;;;;15.02;5.88;;;;;;;24.52;32.31;98020.19;10460571;28;20059;-54
2023/09/29 14:32:05;;;;;;;15.27;5.93;;;;;;;24.46;31.91;98016.94;10459086;28;20082;-53
2023/09/29 14:37:04;;;;;;;16.85;6.70;;;;;;;24.13;32.63;98016.88;10459800;28;20039;-53
2023/09/29 14:42:03;;;;;;;11.35;6.45;;;;;;;24.24;32.50;98019.03;10459662;28;20422;-53
2023/09/29 14:47:02;;;;;;;17.83;6.53;;;;;;;24.12;32.54;98022.25;10459562;28;20043;-53
2023/09/29 14:52:01;;;;;;;12.85;7.45;;;;;;;24.08;32.62;98026.03;10459495;28;20461;-53
2023/09/29 14:57:00;;;;;;;13.38;5.97;;;;;;;24.04;32.87;98025.31;10459194;28;20067;-53
2023/09/29 15:01:59;;;;;;;19.98;6.68;;;;;;;23.89;32.56;98024.31;10459631;28;20016;-53
2023/09/29 15:06:58;;;;;;;16.05;6.10;;;;;;;23.70;33.06;98034.09;10458731;28;20082;-53
2023/09/29 15:11:56;;;;;;;16.10;7.10;;;;;;;23.69;33.25;98030.59;10458915;28;20051;-53
2023/09/29 15:16:55;;;;;;;17.45;6.68;;;;;;;23.61;33.16;98035.44;10458475;28;20024;-53
2023/09/29 15:21:54;;;;;;;12.73;6.22;;;;;;;23.68;33.22;98038.63;10457983;28;20071;-53
2023/09/29 15:26:54;;;;;;;12.43;8.35;;;;;;;23.50;33.50;98035.09;10457991;28;20116;-53
2023/09/29 15:31:53;;;;;;;32.38;22.95;;;;;;;23.25;33.73;98009.75;10457954;28;20066;-53
2023/09/29 15:36:52;;;;;;;13.05;6.80;;;;;;;23.38;34.26;98040.03;10457320;28;20044;-52
2023/09/29 15:41:51;;;;;;;15.95;7.22;;;;;;;23.23;34.33;98043.41;10457213;28;20063;-53
2023/09/29 15:46:50;;;;;;;12.25;6.72;;;;;;;23.14;34.03;98047.38;10457046;28;20067;-53
2023/09/29 15:51:49;;;;;;;13.07;6.00;;;;;;;22.96;34.44;98057.00;10457571;28;20107;-53
2023/09/29 15:56:48;;;;;;;13.10;6.72;;;;;;;22.95;34.92;98049.13;10457182;28;20048;-53
2023/09/29 16:01:47;;;;;;;15.25;6.38;;;;;;;22.81;35.27;98057.69;10457145;28;20103;-53
2023/09/29 16:06:46;;;;;;;16.88;7.95;;;;;;;22.62;34.95;98047.06;10457219;28;20035;-53
2023/09/29 16:11:44;;;;;;;15.32;8.15;;;;;;;22.45;35.13;98045.19;10456981;28;20316;-53
2023/09/29 16:16:43;;;;;;;13.93;7.07;;;;;;;22.42;35.60;98069.13;10456994;28;20059;-53
2023/09/29 16:21:42;;;;;;;21.23;7.85;;;;;;;22.39;36.09;98071.91;10456798;28;20051;-52
2023/09/29 16:26:41;;;;;;;19.10;7.18;;;;;;;22.22;36.37;98069.13;10456518;28;20469;-52
2023/09/29 16:31:40;;;;;;;24.05;8.77;;;;;;;22.06;37.50;98071.56;10456499;28;20079;-53
2023/09/29 16:36:39;;;;;;;17.70;9.15;;;;;;;21.85;38.79;98076.81;10456303;28;20036;-52
2023/09/29 16:41:38;;;;;;;18.38;9.48;;;;;;;21.63;40.11;98084.75;10456797;28;20055;-52
2023/09/29 16:46:38;;;;;;;19.83;10.63;;;;;;;21.38;41.02;98081.38;10456208;28;20055;-52
2023/09/29 16:51:36;;;;;;;25.55;14.07;;;;;;;21.17;41.73;98080.38;10456128;28;20070;-52
2023/09/29 16:56:35;;;;;;;22.58;13.52;;;;;;;20.90;42.50;98085.81;10460672;28;20108;-52
2023/09/29 17:01:34;;;;;;;31.75;17.58;;;;;;;20.66;42.74;98080.53;10463815;28;20031;-52
2023/09/29 17:06:33;;;;;;;25.77;14.55;;;;;;;20.51;43.32;98088.97;10463918;28;20036;-52
2023/09/29 17:11:32;;;;;;;22.95;14.18;;;;;;;20.29;43.59;98084.44;10462593;28;20064;-52
2023/09/29 17:16:31;;;;;;;18.42;10.40;;;;;;;20.24;43.60;98086.38;10463229;28;20063;-52
2023/09/29 17:21:31;;;;;;;16.95;9.50;;;;;;;20.06;43.87;98097.53;10462999;28;20032;-52
2023/09/29 17:26:30;;;;;;;13.98;8.10;;;;;;;19.88;44.45;98104.28;10463226;28;20498;-52
2023/09/29 17:31:29;;;;;;;18.60;8.32;;;;;;;19.70;44.78;98105.75;10463069;28;20083;-53
2023/09/29 17:36:29;;;;;;;16.10;9.00;;;;;;;19.55;45.27;98101.78;10462220;28;20074;-51
2023/09/29 17:41:27;;;;;;;14.93;8.77;;;;;;;19.48;45.91;98110.78;10462411;28;20458;-51
2023/09/29 17:46:26;;;;;;;17.27;7.45;;;;;;;19.36;46.15;98105.91;10462026;28;20565;-53
2023/09/29 17:51:25;;;;;;;16.80;9.05;;;;;;;19.22;46.93;98119.50;10462068;28;20438;-53
2023/09/29 17:56:26;;;;;;;16.50;7.28;;;;;;;19.09;47.15;98118.13;10461615;28;20098;-51
2023/09/29 18:01:25;;;;;;;19.67;7.50;;;;;;;18.96;47.19;98118.47;10461672;28;20059;-51
2023/09/29 18:06:29;;;;;;;14.85;7.47;;;;;;;18.77;47.46;98102.38;10461641;28;20103;-52
2023/09/29 18:11:28;;;;;;;14.77;7.07;;;;;;;18.73;47.95;98121.75;10461270;28;20498;-52
2023/09/29 18:16:27;;;;;;;13.88;7.35;;;;;;;18.64;48.17;98129.88;10460941;28;20522;-52
2023/09/29 18:21:27;;;;;;;10.88;6.90;;;;;;;18.50;48.73;98125.03;10459984;28;20521;-52
2023/09/29 18:26:26;;;;;;;14.40;8.07;;;;;;;18.34;49.70;98118.44;10460281;28;20086;-52
2023/09/29 18:31:24;;;;;;;12.50;8.20;;;;;;;18.17;50.29;98122.38;10460209;28;20020;-51
2023/09/29 18:36:24;;;;;;;13.60;9.00;;;;;;;18.01;50.87;98114.91;10459651;28;20055;-52
2023/09/29 18:41:24;;;;;;;11.48;7.95;;;;;;;17.75;51.26;98098.88;10460343;28;20070;-51
2023/09/29 18:46:24;;;;;;;17.80;8.20;;;;;;;17.70;51.99;98121.72;10459453;28;20064;-52
2023/09/29 18:51:24;;;;;;;15.93;8.13;;;;;;;17.14;52.14;98037.34;10460160;28;20502;-50
2023/09/29 18:56:22;;;;;;;15.13;8.27;;;;;;;17.29;52.33;98084.22;10459450;28;20059;-50
2023/09/29 19:01:23;;;;;;;14.73;7.50;;;;;;;17.44;52.48;98126.75;10459492;28;20028;-52
2023/09/29 19:06:22;;;;;;;13.35;6.95;;;;;;;17.32;52.77;98130.50;10459112;28;20063;-51
2023/09/29 19:11:21;;;;;;;16.10;8.55;;;;;;;17.19;53.59;98132.53;10457315;28;20032;-50
2023/09/29 19:16:20;;;;;;;16.65;9.18;;;;;;;17.09;54.31;98126.59;10458396;28;20078;-51
2023/09/29 19:21:22;;;;;;;18.33;8.52;;;;;;;17.01;54.41;98135.53;10457329;28;20071;-50
2023/09/29 19:26:24;;;;;;;14.30;7.55;;;;;;;16.95;54.91;98125.19;10457695;28;20086;-50
2023/09/29 19:31:27;;;;;;;13.27;8.00;;;;;;;16.84;54.69;98138.50;10457227;28;20063;-51
2023/09/29 19:36:28;;;;;;;16.60;8.52;;;;;;;16.73;55.43;98133.44;10457223;28;20071;-51
2023/09/29 19:41:29;;;;;;;15.15;7.90;;;;;;;16.61;55.44;98144.16;10457486;28;20067;-51
2023/09/29 19:46:28;;;;;;;16.02;8.10;;;;;;;16.56;55.76;98138.13;10457376;28;20091;-51
2023/09/29 19:51:27;;;;;;;14.48;8.45;;;;;;;15.99;56.51;98064.09;10457134;28;20047;-52
2023/09/29 19:56:32;;;;;;;;;;;;;;;16.39;57.09;98146.31;10457819;28;20127;-50
2023/09/29 20:01:31;;;;;;;20.73;11.30;;;;;;;16.38;57.92;98149.81;10456595;28;19950;-51
2023/09/29 20:06:31;;;;;;;27.58;13.05;;;;;;;16.28;58.58;98144.75;10457420;28;20031;-51
2023/09/29 20:11:30;;;;;;;25.00;12.38;;;;;;;16.27;59.31;98148.25;10457071;28;20064;-50
2023/09/29 20:16:29;;;;;;;21.83;11.27;;;;;;;16.22;59.62;98157.09;10457073;28;20071;-51
2023/09/29 20:21:29;;;;;;;19.70;10.43;;;;;;;16.17;60.14;98154.53;10456792;28;20565;-51
2023/09/29 20:26:33;;;;;;;18.70;10.13;;;;;;;15.76;60.12;98072.31;10456825;28;20060;-51
2023/09/29 20:31:32;;;;;;;17.83;9.25;;;;;;;16.17;60.34;98141.44;10461476;28;20066;-51
2023/09/29 20:36:31;;;;;;;15.77;8.38;;;;;;;16.14;60.40;98144.13;10464483;28;20072;-51
2023/09/29 20:41:30;;;;;;;;;;;;;;;16.14;60.33;98143.25;10465164;28;20103;-51
2023/09/29 20:46:29;;;;;;;26.93;11.97;;;;;;;16.05;60.58;98129.44;10464263;28;19908;-51
2023/09/29 20:51:28;;;;;;;;;;;;;;;15.98;61.11;98140.03;10464817;28;20028;-51
2023/09/29 20:56:33;;;;;;;21.17;10.75;;;;;;;15.77;61.96;98125.53;10464258;28;19916;-51
2023/09/29 21:01:32;;;;;;;20.38;10.73;;;;;;;15.79;61.84;98136.88;10462968;28;20059;-51
2023/09/29 21:06:32;;;;;;;;;;;;;;;15.75;62.13;98137.75;10464258;28;20085;-49
2023/09/29 21:11:31;;;;;;;15.20;9.50;;;;;;;15.68;62.18;98135.22;10463501;28;19979;-51
2023/09/29 21:16:30;;;;;;;14.48;9.48;;;;;;;15.66;61.59;98128.28;10463733;28;20067;-52
2023/09/29 21:21:29;;;;;;;;;;;;;;;15.48;62.35;98131.19;10463800;28;20036;-51
2023/09/29 21:26:28;;;;;;;14.98;8.93;;;;;;;15.47;62.18;98125.09;10462929;28;19966;-51
2023/09/29 21:31:27;;;;;;;;;;;;;;;15.54;62.01;98126.72;10463140;28;20031;-51
2023/09/29 21:36:26;;;;;;;12.77;9.60;;;;;;;15.56;62.44;98130.19;10462071;28;19966;-49
2023/09/29 21:41:24;;;;;;;;;;;;;;;15.55;62.27;98119.75;10462971;28;20044;-51
2023/09/29 21:46:23;;;;;;;18.23;9.87;;;;;;;15.57;62.37;98129.28;10462294;28;19914;-51
2023/09/29 21:51:22;;;;;;;;;;;;;;;15.59;62.44;98127.53;10462472;28;20055;-51
2023/09/29 21:56:21;;;;;;;18.65;10.35;;;;;;;15.68;62.77;98126.53;10461877;28;19966;-51
2023/09/29 22:01:20;;;;;;;;;;;;;;;15.70;63.35;98119.50;10462175;28;20108;-50
2023/09/29 22:06:20;;;;;;;29.67;13.18;;;;;;;15.74;63.53;98118.59;10461541;28;19922;-50
2023/09/29 22:11:19;;;;;;;29.13;13.80;;;;;;;15.84;63.19;98116.72;10461245;28;20056;-49
2023/09/29 22:16:18;;;;;;;;;;;;;;;15.87;63.49;98119.28;10461294;28;20028;-51
2023/09/29 22:21:20;;;;;;;24.70;10.93;;;;;;;15.93;64.18;98132.28;10460674;28;19955;-51
2023/09/29 22:26:21;;;;;;;16.73;10.23;;;;;;;15.89;63.79;98125.34;10460298;28;20071;-51
2023/09/29 22:31:21;;;;;;;18.65;9.65;;;;;;;15.90;63.57;98111.34;10459919;28;20064;-51
2023/09/29 22:36:20;;;;;;;17.60;10.35;;;;;;;15.84;63.49;98122.81;10459583;28;20074;-51
2023/09/29 22:41:20;;;;;;;15.75;9.30;;;;;;;15.85;63.92;98114.06;10459771;28;20443;-51
2023/09/29 22:46:19;;;;;;;18.20;9.57;;;;;;;15.87;64.07;98127.13;10459914;28;20070;-51
2023/09/29 22:51:18;;;;;;;;;;;;;;;15.89;63.78;98122.72;10459367;28;20028;-50
2023/09/29 22:56:17;;;;;;;15.40;8.30;;;;;;;15.86;63.18;98128.88;10458924;28;19911;-51
2023/09/29 23:01:16;;;;;;;13.10;8.73;;;;;;;15.88;62.78;98128.88;10458743;28;20064;-51
2023/09/29 23:06:16;;;;;;;16.45;8.57;;;;;;;15.89;63.38;98125.34;10458636;28;20063;-51
2023/09/29 23:11:15;;;;;;;19.08;9.70;;;;;;;15.88;63.73;98123.63;10458113;28;20082;-51
2023/09/29 23:16:16;;;;;;;16.05;9.48;;;;;;;15.88;63.60;98118.41;10459228;28;20071;-50
2023/09/29 23:21:15;;;;;;;16.80;10.68;;;;;;;15.87;64.05;98116.66;10458370;28;20083;-51
2023/09/29 23:26:14;;;;;;;17.20;9.77;;;;;;;15.87;63.59;98116.66;10458021;28;20075;-51
2023/09/29 23:31:15;;;;;;;14.85;9.77;;;;;;;15.85;63.41;98113.19;10457453;28;20072;-50
2023/09/29 23:36:19;;;;;;;17.65;10.20;;;;;;;15.70;63.85;98092.50;10457925;28;20075;-52
2023/09/29 23:41:18;;;;;;;17.50;9.73;;;;;;;15.47;64.45;98049.25;10457716;28;20063;-51
2023/09/29 23:46:17;;;;;;;14.82;9.52;;;;;;;15.77;65.46;98115.91;10457167;28;20078;-51
2023/09/29 23:51:16;;;;;;;16.02;9.88;;;;;;;15.75;65.40;98119.44;10457143;28;20542;-51
2023/09/29 23:56:17;;;;;;;15.38;9.95;;;;;;;15.77;65.34;98110.69;10457412;28;20071;-50
